Time;durP1;ratioP1;P1;durP2;ratioP2;P2;SDS_P1;SDS_P2;PMS_P1;PMS_P2;Temp;Humidity;BMP_temperature;BMP_pressure;BME280_temperature;BME280_humidity;BME280_pressure;Samples;Min_cycle;Max_cycle;Signal;HPM_P1;HPM_P2
2022/08/09 00:01:14;;;;;;;;;;;18.30;62.10;;;;;;5070967;28;19919;-76
2022/08/09 00:03:40;;;;;;;;;;;18.30;62.10;;;;;;5070938;28;20127;-77
2022/08/09 00:06:06;;;;;;;;;;;18.20;62.00;;;;;;5070915;28;20352;-77
2022/08/09 00:08:31;;;;;;;;;;;18.20;62.10;;;;;;5087542;28;20265;-77
2022/08/09 00:11:00;;;;;;;;;;;18.10;62.10;;;;;;5070921;28;19912;-77
2022/08/09 00:13:26;;;;;;;;;;;18.10;62.20;;;;;;5089074;28;19991;-77
2022/08/09 00:15:51;;;;;;;;;;;18.10;62.30;;;;;;5088880;28;20033;-77
2022/08/09 00:18:17;;;;;;;;;;;18.00;62.20;;;;;;5087691;28;20170;-77
2022/08/09 00:20:42;;;;;;;;;;;18.10;62.20;;;;;;5087420;28;19912;-77
2022/08/09 00:23:08;;;;;;;;;;;18.10;62.10;;;;;;5070524;28;19913;-77
2022/08/09 00:25:34;;;;;;;;;;;18.10;62.00;;;;;;5087349;28;20298;-77
2022/08/09 00:27:59;;;;;;;;;;;18.10;61.90;;;;;;5070341;28;19920;-77
2022/08/09 00:30:25;;;;;;;;;;;18.10;61.90;;;;;;5088541;28;19908;-77
2022/08/09 00:32:50;;;;;;;;;;;18.00;61.80;;;;;;5087334;28;20352;-77
2022/08/09 00:35:16;;;;;;;;;;;18.00;61.80;;;;;;5087366;28;20383;-77
2022/08/09 00:37:41;;;;;;;;;;;18.00;61.80;;;;;;5070432;28;19966;-77
2022/08/09 00:40:07;;;;;;;;;;;18.00;61.80;;;;;;5070296;28;20459;-77
2022/08/09 00:42:33;;;;;;;;;;;18.00;61.80;;;;;;5087431;28;20297;-77
2022/08/09 00:44:59;;;;;;;;;;;18.00;61.80;;;;;;5070421;28;19926;-77
2022/08/09 00:47:24;;;;;;;;;;;18.00;61.80;;;;;;5088384;28;19912;-77
2022/08/09 00:49:50;;;;;;;;;;;18.00;61.80;;;;;;5070150;28;19919;-77
2022/08/09 00:52:15;;;;;;;;;;;18.00;61.80;;;;;;5070125;28;19916;-77
2022/08/09 00:54:41;;;;;;;;;;;17.90;62.00;;;;;;5088420;28;19912;-77
2022/08/09 00:57:07;;;;;;;;;;;17.90;62.00;;;;;;5086945;28;19956;-77
2022/08/09 00:59:32;;;;;;;;;;;17.90;62.00;;;;;;5070147;28;19920;-76
2022/08/09 01:02:00;;;;;;;;;;;17.80;61.80;;;;;;5070208;28;19912;-77
2022/08/09 01:04:45;;;;;;;;;;;17.80;61.80;;;;;;5087069;28;19908;-77
2022/08/09 01:07:23;;;;;;;;;;;17.80;61.70;;;;;;5086778;28;19923;-77
2022/08/09 01:09:55;;;;;;;;;;;17.70;61.70;;;;;;5088182;28;19947;-77
2022/08/09 01:12:28;;;;;;;;;;;17.80;61.90;;;;;;5086674;28;19923;-77
2022/08/09 01:15:20;;;;;;;;;;;17.70;61.90;;;;;;5086720;28;19908;-77
2022/08/09 01:17:54;;;;;;;;;;;17.80;61.90;;;;;;5086180;28;19931;-77
2022/08/09 01:20:19;;;;;;;;;;;17.80;61.90;;;;;;5086751;28;19956;-77
2022/08/09 01:23:03;;;;;;;;;;;17.80;61.90;;;;;;5086605;28;19908;-77
2022/08/09 01:25:49;;;;;;;;;;;17.80;61.90;;;;;;5086617;28;19908;-77
2022/08/09 01:28:14;;;;;;;;;;;17.90;62.00;;;;;;5086672;28;19954;-77
2022/08/09 01:30:41;;;;;;;;;;;17.80;62.00;;;;;;5087945;28;19960;-77
2022/08/09 01:33:07;;;;;;;;;;;17.80;62.00;;;;;;5086555;28;19936;-77
2022/08/09 01:35:36;;;;;;;;;;;17.80;62.00;;;;;;5087857;28;19951;-77
2022/08/09 01:38:05;;;;;;;;;;;17.70;62.00;;;;;;5089281;28;19916;-77
2022/08/09 01:40:32;;;;;;;;;;;17.60;62.10;;;;;;5090269;28;20018;-78
2022/08/09 01:42:57;;;;;;;;;;;17.60;62.10;;;;;;5091952;28;19930;-77
2022/08/09 01:45:24;;;;;;;;;;;17.60;62.20;;;;;;5090756;28;19908;-77
2022/08/09 01:47:50;;;;;;;;;;;17.60;62.70;;;;;;5090267;28;19959;-77
2022/08/09 01:50:17;;;;;;;;;;;17.60;62.10;;;;;;5091597;28;19955;-77
2022/08/09 01:52:43;;;;;;;;;;;17.50;62.00;;;;;;5091630;28;19918;-77
2022/08/09 01:55:09;;;;;;;;;;;17.50;61.90;;;;;;5090302;28;19912;-77
2022/08/09 01:57:37;;;;;;;;;;;17.50;61.90;;;;;;5090246;28;19908;-77
2022/08/09 02:00:05;;;;;;;;;;;17.50;61.90;;;;;;5091389;28;20390;-77
2022/08/09 02:02:31;;;;;;;;;;;17.50;61.90;;;;;;5090220;28;20289;-76
2022/08/09 02:04:59;;;;;;;;;;;17.50;62.00;;;;;;5090020;28;20300;-76
2022/08/09 02:07:25;;;;;;;;;;;17.50;62.00;;;;;;5090029;28;20007;-77
2022/08/09 02:09:51;;;;;;;;;;;17.50;62.00;;;;;;5073189;28;20057;-77
2022/08/09 02:12:20;;;;;;;;;;;17.50;62.00;;;;;;5091266;28;19915;-77
2022/08/09 02:14:48;;;;;;;;;;;17.50;62.00;;;;;;5089889;28;19915;-77
2022/08/09 02:17:14;;;;;;;;;;;17.50;62.00;;;;;;5089822;28;19908;-77
2022/08/09 02:19:40;;;;;;;;;;;17.50;62.00;;;;;;5089721;28;19928;-77
2022/08/09 02:22:10;;;;;;;;;;;17.50;61.90;;;;;;5091133;28;19916;-77
2022/08/09 02:24:36;;;;;;;;;;;17.50;61.90;;;;;;5089799;28;20280;-77
2022/08/09 02:27:06;;;;;;;;;;;17.50;61.80;;;;;;5090995;28;19912;-77
2022/08/09 02:29:36;;;;;;;;;;;17.50;61.80;;;;;;5089695;28;19923;-77
2022/08/09 02:32:02;;;;;;;;;;;17.50;61.80;;;;;;5089543;28;19913;-77
2022/08/09 02:34:30;;;;;;;;;;;17.40;61.80;;;;;;5072819;28;20011;-77
2022/08/09 02:36:57;;;;;;;;;;;17.40;61.80;;;;;;5089732;28;19915;-77
2022/08/09 02:39:29;;;;;;;;;;;17.30;61.80;;;;;;5089256;28;20361;-77
2022/08/09 02:42:00;;;;;;;;;;;17.30;61.80;;;;;;5089398;28;19908;-77
2022/08/09 02:44:30;;;;;;;;;;;17.30;61.90;;;;;;5089237;28;19974;-77
2022/08/09 02:46:56;;;;;;;;;;;17.30;62.40;;;;;;5089316;28;19916;-77
2022/08/09 02:49:22;;;;;;;;;;;17.30;61.90;;;;;;5089379;28;19908;-74
2022/08/09 02:51:50;;;;;;;;;;;17.30;62.00;;;;;;5089223;28;20382;-77
2022/08/09 02:54:16;;;;;;;;;;;17.30;61.90;;;;;;5089275;28;19908;-77
2022/08/09 02:56:43;;;;;;;;;;;17.30;61.90;;;;;;5089206;28;19909;-77
2022/08/09 02:59:10;;;;;;;;;;;17.30;61.80;;;;;;5089027;28;19908;-77
2022/08/09 03:01:36;;;;;;;;;;;17.30;61.90;;;;;;5090532;28;20351;-77
2022/08/09 03:04:01;;;;;;;;;;;17.30;61.90;;;;;;5072265;28;19920;-77
2022/08/09 03:06:27;;;;;;;;;;;17.30;62.40;;;;;;5089045;28;20349;-77
2022/08/09 03:08:54;;;;;;;;;;;17.30;61.90;;;;;;5088844;28;19912;-77
2022/08/09 03:11:21;;;;;;;;;;;17.30;61.90;;;;;;5088940;28;19912;-77
2022/08/09 03:13:47;;;;;;;;;;;17.30;61.90;;;;;;5088891;28;19908;-77
2022/08/09 03:16:13;;;;;;;;;;;17.30;61.90;;;;;;5088801;28;19918;-77
2022/08/09 03:18:40;;;;;;;;;;;17.30;61.90;;;;;;5088827;28;19912;-77
2022/08/09 03:21:06;;;;;;;;;;;17.30;62.00;;;;;;5089918;28;20357;-77
2022/08/09 03:23:32;;;;;;;;;;;17.30;62.00;;;;;;5071993;28;19965;-77
2022/08/09 03:25:58;;;;;;;;;;;17.30;62.00;;;;;;5071805;28;19916;-77
2022/08/09 03:28:25;;;;;;;;;;;17.30;62.00;;;;;;5089731;28;20360;-77
2022/08/09 03:30:52;;;;;;;;;;;17.30;62.00;;;;;;5088422;28;19957;-77
2022/08/09 03:33:18;;;;;;;;;;;17.30;61.90;;;;;;5089794;28;19912;-77
2022/08/09 03:35:44;;;;;;;;;;;17.30;61.90;;;;;;5089750;28;19919;-77
2022/08/09 03:38:10;;;;;;;;;;;17.30;61.90;;;;;;5071574;28;20089;-77
2022/08/09 03:40:35;;;;;;;;;;;17.20;61.90;;;;;;5089465;28;19920;-77
2022/08/09 03:43:01;;;;;;;;;;;17.20;61.90;;;;;;5088210;28;19930;-77
2022/08/09 03:45:26;;;;;;;;;;;17.20;61.90;;;;;;5088448;28;19947;-77
2022/08/09 03:47:52;;;;;;;;;;;17.20;61.90;;;;;;5089358;28;19916;-77
2022/08/09 03:50:19;;;;;;;;;;;17.10;61.90;;;;;;5088020;28;19912;-76
2022/08/09 03:52:44;;;;;;;;;;;17.20;62.00;;;;;;5087895;28;20296;-76
2022/08/09 03:55:10;;;;;;;;;;;17.20;62.00;;;;;;5071086;28;19919;-76
2022/08/09 03:57:36;;;;;;;;;;;17.10;62.00;;;;;;5071018;28;19920;-77
2022/08/09 04:00:03;;;;;;;;;;;17.10;62.00;;;;;;5070936;28;19919;-77
2022/08/09 04:02:29;;;;;;;;;;;17.10;62.00;;;;;;5087451;28;19912;-77
2022/08/09 04:04:56;;;;;;;;;;;17.10;62.00;;;;;;5087571;28;19912;-77
2022/08/09 04:07:21;;;;;;;;;;;17.10;62.00;;;;;;5087648;28;19916;-77
2022/08/09 04:09:47;;;;;;;;;;;17.10;62.00;;;;;;5071144;28;20387;-77
2022/08/09 04:12:13;;;;;;;;;;;17.10;62.00;;;;;;5087730;28;19985;-77
2022/08/09 04:14:39;;;;;;;;;;;17.10;62.00;;;;;;5087626;28;19908;-77
2022/08/09 04:17:05;;;;;;;;;;;17.00;61.90;;;;;;5087748;28;19912;-77
2022/08/09 04:19:31;;;;;;;;;;;17.00;62.00;;;;;;5070679;28;19920;-76
2022/08/09 04:21:56;;;;;;;;;;;16.90;61.90;;;;;;5070604;28;19916;-77
2022/08/09 04:24:22;;;;;;;;;;;16.90;61.90;;;;;;5070534;28;19919;-77
2022/08/09 04:26:47;;;;;;;;;;;16.90;62.10;;;;;;5087311;28;20375;-77
2022/08/09 04:29:13;;;;;;;;;;;16.90;62.10;;;;;;5070394;28;19912;-77
2022/08/09 04:31:38;;;;;;;;;;;16.90;62.10;;;;;;5087563;28;20417;-77
2022/08/09 04:34:04;;;;;;;;;;;16.90;62.10;;;;;;5087435;28;20386;-76
2022/08/09 04:36:30;;;;;;;;;;;16.90;62.10;;;;;;5070467;28;20376;-77
2022/08/09 04:38:57;;;;;;;;;;;16.80;62.00;;;;;;5086902;28;20344;-77
2022/08/09 04:41:22;;;;;;;;;;;16.90;62.10;;;;;;5087258;28;20012;-77
2022/08/09 04:43:48;;;;;;;;;;;16.80;62.10;;;;;;5087302;28;20444;-77
2022/08/09 04:46:14;;;;;;;;;;;16.80;62.00;;;;;;5087276;28;20363;-77
2022/08/09 04:48:39;;;;;;;;;;;16.80;62.00;;;;;;5088232;28;19912;-76
2022/08/09 04:51:05;;;;;;;;;;;16.70;62.00;;;;;;5087123;28;19908;-76
2022/08/09 04:53:30;;;;;;;;;;;16.70;62.00;;;;;;5070064;28;20428;-77
2022/08/09 04:55:56;;;;;;;;;;;16.60;62.00;;;;;;5070154;28;19923;-77
2022/08/09 04:58:21;;;;;;;;;;;16.60;62.00;;;;;;5070101;28;20407;-77
2022/08/09 05:00:47;;;;;;;;;;;16.60;62.00;;;;;;5086804;28;19908;-76
2022/08/09 05:03:13;;;;;;;;;;;16.50;62.00;;;;;;5070244;28;19912;-77
2022/08/09 05:05:38;;;;;;;;;;;16.50;62.00;;;;;;5087347;28;19919;-76
2022/08/09 05:08:04;;;;;;;;;;;16.40;62.10;;;;;;5069709;28;19920;-77
2022/08/09 05:10:29;;;;;;;;;;;16.40;62.10;;;;;;5069970;28;20011;-76
2022/08/09 05:12:55;;;;;;;;;;;16.40;62.10;;;;;;5069762;28;19912;-77
2022/08/09 05:15:20;;;;;;;;;;;16.30;62.00;;;;;;5086698;28;19916;-77
2022/08/09 05:17:46;;;;;;;;;;;16.30;62.00;;;;;;5086699;28;19918;-77
2022/08/09 05:20:12;;;;;;;;;;;16.30;62.00;;;;;;5069836;28;19912;-77
2022/08/09 05:22:37;;;;;;;;;;;16.30;62.00;;;;;;5070000;28;20322;-77
2022/08/09 05:25:03;;;;;;;;;;;16.20;62.00;;;;;;5086448;28;20366;-77
2022/08/09 05:27:29;;;;;;;;;;;16.20;62.00;;;;;;5069538;28;19916;-76
2022/08/09 05:29:54;;;;;;;;;;;16.20;62.00;;;;;;5086460;28;19923;-77
2022/08/09 05:32:20;;;;;;;;;;;16.20;62.10;;;;;;5086455;28;20376;-77
2022/08/09 05:34:45;;;;;;;;;;;16.30;62.10;;;;;;5069976;28;20314;-76
2022/08/09 05:37:11;;;;;;;;;;;16.30;62.10;;;;;;5086372;28;19991;-76
2022/08/09 05:39:38;;;;;;;;;;;16.30;62.10;;;;;;5069481;28;20262;-76
2022/08/09 05:42:03;;;;;;;;;;;16.40;62.10;;;;;;5086459;28;20067;-77
2022/08/09 05:44:29;;;;;;;;;;;16.50;62.10;;;;;;5087880;28;19923;-77
2022/08/09 05:46:55;;;;;;;;;;;16.60;62.60;;;;;;5086304;28;20353;-76
2022/08/09 05:49:20;;;;;;;;;;;16.70;62.00;;;;;;5069291;28;20386;-77
2022/08/09 05:51:46;;;;;;;;;;;16.70;62.00;;;;;;5086248;28;19912;-76
2022/08/09 05:54:11;;;;;;;;;;;16.80;61.90;;;;;;5086535;28;19962;-76
2022/08/09 05:56:37;;;;;;;;;;;16.80;61.90;;;;;;5069396;28;19971;-76
2022/08/09 05:59:03;;;;;;;;;;;16.80;61.80;;;;;;5069229;28;19920;-76
2022/08/09 06:01:29;;;;;;;;;;;16.90;61.90;;;;;;5086066;28;20010;-77
2022/08/09 06:03:55;;;;;;;;;;;16.90;62.00;;;;;;5069226;28;19919;-76
2022/08/09 06:06:21;;;;;;;;;;;17.00;62.00;;;;;;5087344;28;20006;-76
2022/08/09 06:08:47;;;;;;;;;;;17.10;62.00;;;;;;5086033;28;19998;-77
2022/08/09 06:11:12;;;;;;;;;;;17.20;62.10;;;;;;5088033;28;19912;-76
2022/08/09 06:13:38;;;;;;;;;;;17.30;62.10;;;;;;5087455;28;20365;-76
2022/08/09 06:16:03;;;;;;;;;;;17.40;62.10;;;;;;5069377;28;19916;-77
2022/08/09 06:18:29;;;;;;;;;;;17.50;62.10;;;;;;5086001;28;19983;-77
2022/08/09 06:20:55;;;;;;;;;;;17.60;62.10;;;;;;5069039;28;20394;-77
2022/08/09 06:23:22;;;;;;;;;;;17.80;62.10;;;;;;5086012;28;19918;-77
2022/08/09 06:25:48;;;;;;;;;;;17.90;62.00;;;;;;5089482;28;20003;-77
2022/08/09 06:28:13;;;;;;;;;;;18.00;61.80;;;;;;5090805;28;19955;-76
2022/08/09 06:30:39;;;;;;;;;;;18.20;62.00;;;;;;5089620;28;20358;-77
2022/08/09 06:33:04;;;;;;;;;;;18.60;62.30;;;;;;5072529;28;19923;-77
2022/08/09 06:35:30;;;;;;;;;;;19.30;62.20;;;;;;5091108;28;19912;-77
2022/08/09 06:37:55;;;;;;;;;;;19.80;61.30;;;;;;5073484;28;19965;-77
2022/08/09 06:40:22;;;;;;;;;;;19.90;60.90;;;;;;5073468;28;19928;-76
2022/08/09 06:42:47;;;;;;;;;;;19.80;60.70;;;;;;5089209;28;19995;-76
2022/08/09 06:45:13;;;;;;;;;;;19.60;60.80;;;;;;5089308;28;19915;-77
2022/08/09 06:47:39;;;;;;;;;;;19.50;60.90;;;;;;5072472;28;20272;-77
2022/08/09 06:50:05;;;;;;;;;;;19.30;61.00;;;;;;5088930;28;19947;-76
2022/08/09 06:52:31;;;;;;;;;;;19.20;61.20;;;;;;5090811;28;19912;-76
2022/08/09 06:54:56;;;;;;;;;;;19.10;61.30;;;;;;5072084;28;20045;-77
2022/08/09 06:57:22;;;;;;;;;;;19.00;61.40;;;;;;5071998;28;19933;-77
2022/08/09 06:59:47;;;;;;;;;;;19.00;61.60;;;;;;5088512;28;19916;-77
2022/08/09 07:02:13;;;;;;;;;;;19.00;61.60;;;;;;5071593;28;19919;-77
2022/08/09 07:04:38;;;;;;;;;;;19.00;61.70;;;;;;5071659;28;19913;-77
2022/08/09 07:07:05;;;;;;;;;;;19.10;61.80;;;;;;5071679;28;19916;-77
2022/08/09 07:09:31;;;;;;;;;;;19.10;61.80;;;;;;5088529;28;19912;-76
2022/08/09 07:11:56;;;;;;;;;;;19.20;61.90;;;;;;5071285;28;19916;-78
2022/08/09 07:14:22;;;;;;;;;;;19.20;61.90;;;;;;5088229;28;19966;-78
2022/08/09 07:16:48;;;;;;;;;;;19.30;61.90;;;;;;5088293;28;20031;-78
2022/08/09 07:19:14;;;;;;;;;;;19.30;61.90;;;;;;5087970;28;19958;-78
2022/08/09 07:21:39;;;;;;;;;;;19.90;62.70;;;;;;5089675;28;19914;-78
2022/08/09 07:24:06;;;;;;;;;;;21.10;62.80;;;;;;5088016;28;19909;-76
2022/08/09 07:26:32;;;;;;;;;;;22.60;62.20;;;;;;5089251;28;20288;-76
2022/08/09 07:28:57;;;;;;;;;;;24.00;61.00;;;;;;5087654;28;19951;-76
2022/08/09 07:31:23;;;;;;;;;;;24.90;59.70;;;;;;5089228;28;19978;-76
2022/08/09 07:33:49;;;;;;;;;;;25.40;59.00;;;;;;5087690;28;19935;-76
2022/08/09 07:36:15;;;;;;;;;;;25.60;58.50;;;;;;5086881;28;19912;-76
2022/08/09 07:38:41;;;;;;;;;;;25.40;59.00;;;;;;5087519;28;20353;-76
2022/08/09 07:41:06;;;;;;;;;;;25.80;59.70;;;;;;5069963;28;19931;-77
2022/08/09 07:43:32;;;;;;;;;;;26.40;59.70;;;;;;5087285;28;20291;-77
2022/08/09 07:45:58;;;;;;;;;;;26.80;59.50;;;;;;5087281;28;19911;-77
2022/08/09 07:48:23;;;;;;;;;;;27.40;59.90;;;;;;5088292;28;20003;-79
2022/08/09 07:50:50;;;;;;;;;;;28.10;60.00;;;;;;5089120;28;21620;-78
2022/08/09 07:53:16;;;;;;;;;;;28.60;59.80;;;;;;5089454;28;19916;-78
2022/08/09 07:55:43;;;;;;;;;;;29.10;59.80;;;;;;5089487;28;19943;-78
2022/08/09 07:58:09;;;;;;;;;;;29.60;59.70;;;;;;5088832;28;19908;-79
2022/08/09 08:00:34;;;;;;;;;;;30.00;59.80;;;;;;5090333;28;19977;-79
2022/08/09 08:03:00;;;;;;;;;;;30.50;59.80;;;;;;5088748;28;19947;-78
2022/08/09 08:05:26;;;;;;;;;;;31.10;59.70;;;;;;5090273;28;20007;-78
2022/08/09 08:07:53;;;;;;;;;;;31.50;59.80;;;;;;5090158;28;19951;-79
2022/08/09 08:10:19;;;;;;;;;;;32.00;59.80;;;;;;5090469;28;19908;-79
2022/08/09 08:12:45;;;;;;;;;;;32.30;59.70;;;;;;5089350;28;19912;-78
2022/08/09 08:15:12;;;;;;;;;;;32.50;60.00;;;;;;5090365;28;19919;-78
2022/08/09 08:17:38;;;;;;;;;;;32.60;60.50;;;;;;5089211;28;19908;-79
2022/08/09 08:20:04;;;;;;;;;;;32.60;60.10;;;;;;5071947;28;19916;-79
2022/08/09 08:22:30;;;;;;;;;;;32.80;60.40;;;;;;5088934;28;19912;-78
2022/08/09 08:24:55;;;;;;;;;;;33.10;60.70;;;;;;5090226;28;19946;-78
2022/08/09 08:27:22;;;;;;;;;;;33.30;60.90;;;;;;5090165;28;19916;-79
2022/08/09 08:29:48;;;;;;;;;;;33.60;61.10;;;;;;5089931;28;20347;-78
2022/08/09 08:32:14;;;;;;;;;;;33.70;61.50;;;;;;5090449;28;19919;-83
2022/08/09 08:34:39;;;;;;;;;;;33.90;61.80;;;;;;5089827;28;19916;-79
2022/08/09 08:37:05;;;;;;;;;;;34.30;62.00;;;;;;5090034;28;20288;-79
2022/08/09 08:39:31;;;;;;;;;;;34.90;62.10;;;;;;5089350;28;19935;-79
2022/08/09 08:41:57;;;;;;;;;;;35.10;62.20;;;;;;5084509;28;19917;-79
2022/08/09 08:44:22;;;;;;;;;;;35.10;62.60;;;;;;5079838;28;19995;-79
2022/08/09 08:46:48;;;;;;;;;;;35.40;62.90;;;;;;5075040;28;19916;-79
2022/08/09 08:49:14;;;;;;;;;;;35.90;63.20;;;;;;5081351;28;19970;-79
2022/08/09 08:51:40;;;;;;;;;;;36.30;63.20;;;;;;5086629;28;19934;-80
2022/08/09 08:54:06;;;;;;;;;;;36.60;63.10;;;;;;5053084;28;20356;-80
2022/08/09 08:56:38;;;;;;;;;;;36.90;63.50;;;;;;5069447;28;19917;-80
2022/08/09 08:59:05;;;;;;;;;;;37.20;63.40;;;;;;5067656;28;19958;-81
2022/08/09 09:01:32;;;;;;;;;;;37.50;63.50;;;;;;5068436;28;19912;-78
2022/08/09 09:03:58;;;;;;;;;;;37.30;63.30;;;;;;5069251;28;19912;-81
2022/08/09 09:06:23;;;;;;;;;;;36.80;63.80;;;;;;5067746;28;20003;-81
2022/08/09 09:08:50;;;;;;;;;;;36.80;64.60;;;;;;5068936;28;20354;-77
2022/08/09 09:11:15;;;;;;;;;;;37.20;64.90;;;;;;5067834;28;20429;-78
2022/08/09 09:13:42;;;;;;;;;;;37.40;64.80;;;;;;5068592;28;19913;-77
2022/08/09 09:16:07;;;;;;;;;;;37.70;65.00;;;;;;5068047;28;19915;-81
2022/08/09 09:18:33;;;;;;;;;;;38.20;64.60;;;;;;5068705;28;19908;-78
2022/08/09 09:20:59;;;;;;;;;;;38.50;63.90;;;;;;5068594;28;19915;-80
2022/08/09 09:23:44;;;;;;;;;;;38.70;63.40;;;;;;5067971;28;19976;-79
2022/08/09 09:26:12;;;;;;;;;;;38.80;63.60;;;;;;5067854;28;20321;-80
2022/08/09 09:28:42;;;;;;;;;;;38.90;64.20;;;;;;5068933;28;19919;-81
2022/08/09 09:31:11;;;;;;;;;;;39.20;64.90;;;;;;5068499;28;19996;-79
2022/08/09 09:33:37;;;;;;;;;;;39.60;64.30;;;;;;5066491;28;19921;-78
2022/08/09 09:36:04;;;;;;;;;;;39.80;63.80;;;;;;5068943;28;19963;-78
2022/08/09 09:38:49;;;;;;;;;;;40.00;63.80;;;;;;5068277;28;20502;-80
2022/08/09 09:41:27;;;;;;;;;;;40.00;64.00;;;;;;5069422;28;19920;-79
2022/08/09 09:43:57;;;;;;;;;;;40.00;64.20;;;;;;5069211;28;19963;-81
2022/08/09 09:46:29;;;;;;;;;;;40.00;64.20;;;;;;5067519;28;20014;-81
2022/08/09 09:48:56;;;;;;;;;;;40.10;64.20;;;;;;5066934;28;19924;-80
2022/08/09 09:51:22;;;;;;;;;;;40.20;64.50;;;;;;5067133;28;19908;-80
2022/08/09 09:54:01;;;;;;;;;;;40.30;64.30;;;;;;5068348;28;20276;-80
2022/08/09 09:56:35;;;;;;;;;;;40.30;63.90;;;;;;5067146;28;19916;-79
2022/08/09 09:59:00;;;;;;;;;;;40.30;63.80;;;;;;5069055;28;19920;-80
2022/08/09 10:01:26;;;;;;;;;;;40.20;64.00;;;;;;5071124;28;19951;-79
2022/08/09 10:03:52;;;;;;;;;;;40.10;64.10;;;;;;5072135;28;19909;-81
2022/08/09 10:06:18;;;;;;;;;;;39.70;64.70;;;;;;5072408;28;20241;-80
2022/08/09 10:08:45;;;;;;;;;;;39.70;65.10;;;;;;5072081;28;19908;-80
2022/08/09 10:11:16;;;;;;;;;;;39.60;65.40;;;;;;5071119;28;19916;-79
2022/08/09 10:13:41;;;;;;;;;;;39.40;65.50;;;;;;5072447;28;20010;-79
2022/08/09 10:16:07;;;;;;;;;;;39.40;65.90;;;;;;5071205;28;19912;-79
2022/08/09 10:18:33;;;;;;;;;;;39.40;65.40;;;;;;5072414;28;20003;-81
2022/08/09 10:21:08;;;;;;;;;;;39.40;65.00;;;;;;5071339;28;20234;-81
2022/08/09 10:23:33;;;;;;;;;;;39.60;65.00;;;;;;5071120;28;19913;-80
2022/08/09 10:26:01;;;;;;;;;;;40.00;65.20;;;;;;5072852;28;19909;-81
2022/08/09 10:28:30;;;;;;;;;;;40.20;65.20;;;;;;5072538;28;19912;-81
2022/08/09 10:30:57;;;;;;;;;;;40.60;65.20;;;;;;5070659;28;19923;-79
2022/08/09 10:33:23;;;;;;;;;;;40.60;64.90;;;;;;5070923;28;19958;-81
2022/08/09 10:35:49;;;;;;;;;;;40.60;65.40;;;;;;5072478;28;19913;-83
2022/08/09 10:38:16;;;;;;;;;;;40.80;65.40;;;;;;5070827;28;19924;-80
2022/08/09 10:40:43;;;;;;;;;;;41.00;65.40;;;;;;5071627;28;20024;-81
2022/08/09 10:43:09;;;;;;;;;;;41.20;65.40;;;;;;5069924;28;19992;-81
2022/08/09 10:45:35;;;;;;;;;;;41.40;65.10;;;;;;5070888;28;19908;-83
2022/08/09 10:48:06;;;;;;;;;;;41.50;65.40;;;;;;5054486;28;20285;-80
2022/08/09 10:53:31;;;;;;;;;;;41.60;65.30;;;;;;5071522;28;20041;-79
2022/08/09 10:56:32;;;;;;;;;;;41.70;65.10;;;;;;5071289;28;19999;-80
2022/08/09 10:58:59;;;;;;;;;;;41.60;65.60;;;;;;5052190;28;20467;-83
2022/08/09 11:01:31;;;;;;;;;;;41.90;65.50;;;;;;5071095;28;19918;-81
2022/08/09 11:04:05;;;;;;;;;;;42.10;65.30;;;;;;5069665;28;20432;-79
2022/08/09 11:06:32;;;;;;;;;;;42.40;65.20;;;;;;5070373;28;20379;-79
2022/08/09 11:08:58;;;;;;;;;;;42.40;65.20;;;;;;5070630;28;19912;-79
2022/08/09 11:11:23;;;;;;;;;;;42.10;65.10;;;;;;5069260;28;19913;-77
2022/08/09 11:14:08;;;;;;;;;;;41.50;65.10;;;;;;5069063;28;19960;-78
2022/08/09 11:16:35;;;;;;;;;;;41.20;65.90;;;;;;5069343;28;20010;-77
2022/08/09 11:19:01;;;;;;;;;;;41.30;66.30;;;;;;5070277;28;19916;-78
2022/08/09 11:21:45;;;;;;;;;;;41.40;66.30;;;;;;5069100;28;19915;-78
2022/08/09 11:24:12;;;;;;;;;;;41.70;66.10;;;;;;5069621;28;19916;-78
2022/08/09 11:26:38;;;;;;;;;;;41.60;65.80;;;;;;5069185;28;19982;-78
2022/08/09 11:29:03;;;;;;;;;;;41.30;66.40;;;;;;5070229;28;19913;-76
2022/08/09 11:31:46;;;;;;;;;;;41.50;66.70;;;;;;5068209;28;20051;-77
2022/08/09 11:34:16;;;;;;;;;;;41.90;66.40;;;;;;5069162;28;20384;-76
2022/08/09 11:36:42;;;;;;;;;;;41.70;65.50;;;;;;5070291;28;20349;-79
2022/08/09 11:39:08;;;;;;;;;;;41.70;65.60;;;;;;5070202;28;19966;-80
2022/08/09 11:41:34;;;;;;;;;;;41.70;65.50;;;;;;5070051;28;19916;-80
2022/08/09 11:43:59;;;;;;;;;;;41.50;65.30;;;;;;5069222;28;19916;-81
2022/08/09 11:46:27;;;;;;;;;;;41.40;65.40;;;;;;5052180;28;19924;-80
2022/08/09 11:48:56;;;;;;;;;;;41.30;65.40;;;;;;5068913;28;19931;-79
2022/08/09 11:51:26;;;;;;;;;;;41.20;65.10;;;;;;5067308;28;19917;-79
2022/08/09 11:54:30;;;;;;;;;;;41.20;65.20;;;;;;5068663;28;19915;-82
2022/08/09 11:57:14;;;;;;;;;;;41.10;64.90;;;;;;5068546;28;20352;-80
2022/08/09 11:59:40;;;;;;;;;;;41.00;64.60;;;;;;5050834;28;20431;-82
2022/08/09 12:02:10;;;;;;;;;;;41.00;64.90;;;;;;5060351;28;19935;-79
2022/08/09 12:04:35;;;;;;;;;;;40.90;65.10;;;;;;5068542;28;19912;-79
2022/08/09 12:07:03;;;;;;;;;;;41.00;65.30;;;;;;5068723;28;20006;-80
2022/08/09 12:09:30;;;;;;;;;;;40.80;65.30;;;;;;5070946;28;20511;-80
2022/08/09 12:11:56;;;;;;;;;;;40.30;65.90;;;;;;5068955;28;19908;-80
2022/08/09 12:14:28;;;;;;;;;;;40.20;66.40;;;;;;5068697;28;20046;-77
2022/08/09 12:16:54;;;;;;;;;;;40.40;66.40;;;;;;5067474;28;20049;-80
2022/08/09 12:19:27;;;;;;;;;;;40.60;66.40;;;;;;5068981;28;20368;-80
2022/08/09 12:21:58;;;;;;;;;;;40.80;66.20;;;;;;5069497;28;20003;-79
2022/08/09 12:24:23;;;;;;;;;;;40.80;65.70;;;;;;5068076;28;19978;-81
2022/08/09 12:26:50;;;;;;;;;;;40.70;65.00;;;;;;5068255;28;19948;-81
2022/08/09 12:29:16;;;;;;;;;;;40.50;64.70;;;;;;5051474;28;19913;-79
2022/08/09 12:31:42;;;;;;;;;;;40.30;64.80;;;;;;5070005;28;19908;-81
2022/08/09 12:34:08;;;;;;;;;;;39.80;65.50;;;;;;5070259;28;19909;-81
2022/08/09 12:36:47;;;;;;;;;;;39.70;66.40;;;;;;5068719;28;20000;-80
2022/08/09 12:39:13;;;;;;;;;;;39.70;66.50;;;;;;5069586;28;19935;-81
2022/08/09 12:41:39;;;;;;;;;;;39.80;66.50;;;;;;5069066;28;20310;-79
2022/08/09 12:44:05;;;;;;;;;;;39.90;66.10;;;;;;5069850;28;20007;-81
2022/08/09 12:46:30;;;;;;;;;;;39.90;65.80;;;;;;5069417;28;20296;-81
2022/08/09 12:48:56;;;;;;;;;;;39.80;65.20;;;;;;5051676;28;20013;-78
2022/08/09 12:51:22;;;;;;;;;;;39.60;64.90;;;;;;5068276;28;19909;-80
2022/08/09 12:53:59;;;;;;;;;;;39.60;65.00;;;;;;5069291;28;19908;-82
2022/08/09 12:56:25;;;;;;;;;;;39.60;65.30;;;;;;5069313;28;19908;-82
2022/08/09 12:59:04;;;;;;;;;;;39.60;65.70;;;;;;5068975;28;20357;-80
2022/08/09 13:01:30;;;;;;;;;;;39.70;65.90;;;;;;5067988;28;19913;-80
2022/08/09 13:03:57;;;;;;;;;;;39.70;65.40;;;;;;5068012;28;19953;-79
2022/08/09 13:06:24;;;;;;;;;;;39.80;65.20;;;;;;5067780;28;19915;-80
2022/08/09 13:08:56;;;;;;;;;;;39.80;65.10;;;;;;5067418;28;20285;-79
2022/08/09 13:11:27;;;;;;;;;;;39.90;65.00;;;;;;5068300;28;19945;-80
2022/08/09 13:13:56;;;;;;;;;;;39.90;64.70;;;;;;5067264;28;20017;-82
2022/08/09 13:16:36;;;;;;;;;;;39.40;64.60;;;;;;5067288;28;19952;-81
2022/08/09 13:19:01;;;;;;;;;;;39.10;64.70;;;;;;5067717;28;19913;-80
2022/08/09 13:21:28;;;;;;;;;;;38.70;64.80;;;;;;5069686;28;19912;-79
2022/08/09 13:24:01;;;;;;;;;;;38.40;65.20;;;;;;5069705;28;19915;-80
2022/08/09 13:26:35;;;;;;;;;;;38.40;65.20;;;;;;5068160;28;19913;-82
2022/08/09 13:29:08;;;;;;;;;;;38.40;65.00;;;;;;5069051;28;19912;-78
2022/08/09 13:31:33;;;;;;;;;;;38.20;64.60;;;;;;5069281;28;19915;-84
2022/08/09 13:33:59;;;;;;;;;;;37.70;64.30;;;;;;5070656;28;19908;-82
2022/08/09 13:36:26;;;;;;;;;;;37.00;63.90;;;;;;5073645;28;19909;-79
2022/08/09 13:38:51;;;;;;;;;;;36.40;63.70;;;;;;5070904;28;19912;-80
2022/08/09 13:41:20;;;;;;;;;;;35.90;63.80;;;;;;5071221;28;20242;-80
2022/08/09 13:43:46;;;;;;;;;;;35.40;63.90;;;;;;5072847;28;20002;-80
2022/08/09 13:46:12;;;;;;;;;;;34.80;64.00;;;;;;5072130;28;20075;-79
2022/08/09 13:48:37;;;;;;;;;;;34.30;64.10;;;;;;5072953;28;19912;-78
2022/08/09 13:51:03;;;;;;;;;;;34.10;64.10;;;;;;5071258;28;20280;-79
2022/08/09 13:53:28;;;;;;;;;;;33.80;63.80;;;;;;5071179;28;19919;-78
2022/08/09 13:55:54;;;;;;;;;;;33.60;63.70;;;;;;5071044;28;19919;-79
2022/08/09 13:58:19;;;;;;;;;;;33.30;63.50;;;;;;5072081;28;19951;-78
2022/08/09 14:00:45;;;;;;;;;;;33.10;63.60;;;;;;5070967;28;19909;-78
2022/08/09 14:03:10;;;;;;;;;;;32.80;63.60;;;;;;5090677;28;20010;-77
2022/08/09 14:05:36;;;;;;;;;;;32.50;63.80;;;;;;5090207;28;20284;-78
2022/08/09 14:08:05;;;;;;;;;;;32.30;63.70;;;;;;5092309;28;19909;-78
2022/08/09 14:10:31;;;;;;;;;;;32.10;63.60;;;;;;5070790;28;19958;-79
2022/08/09 14:12:57;;;;;;;;;;;32.00;63.50;;;;;;5075277;28;19952;-79
2022/08/09 14:15:23;;;;;;;;;;;31.80;63.50;;;;;;5092201;28;19912;-80
2022/08/09 14:17:48;;;;;;;;;;;31.60;63.30;;;;;;5091182;28;19916;-80
2022/08/09 14:20:14;;;;;;;;;;;31.40;63.50;;;;;;5090829;28;19950;-79